createdAt,value
2022-10-13T00:00:51.408Z,57.63
2022-10-13T00:03:19.084Z,58.72
2022-10-13T00:05:48.819Z,59.74
2022-10-13T00:08:19.801Z,59.24
2022-10-13T00:10:49.929Z,60.73
2022-10-13T00:13:19.614Z,61.60
2022-10-13T00:15:47.735Z,63.06
2022-10-13T00:18:15.987Z,64.97
2022-10-13T00:20:48.983Z,62.64
2022-10-13T00:23:17.652Z,63.65
2022-10-13T00:25:46.933Z,64.47
2022-10-13T00:28:15.544Z,67.34
2022-10-13T00:30:43.346Z,68.15
2022-10-13T00:33:11.678Z,66.99
2022-10-13T00:35:44.153Z,69.46
2022-10-13T00:38:12.481Z,69.81
2022-10-13T00:40:54.391Z,69.19
2022-10-13T00:43:27.626Z,65.55
2022-10-13T00:45:55.123Z,67.51
2022-10-13T00:48:28.376Z,68.31
2022-10-13T00:50:56.586Z,67.27
2022-10-13T00:53:27.604Z,66.91
2022-10-13T00:55:55.201Z,69.19
2022-10-13T00:58:23.633Z,71.48
2022-10-13T01:00:53.000Z,71.67
2022-10-13T01:03:20.526Z,76.54
2022-10-13T01:05:48.889Z,75.92
2022-10-13T01:08:16.606Z,75.08
2022-10-13T01:11:23.839Z,74.02
2022-10-13T01:14:09.658Z,74.40
2022-10-13T01:16:48.834Z,71.59
2022-10-13T01:19:38.995Z,74.18
2022-10-13T01:22:30.675Z,77.07
2022-10-13T01:25:10.204Z,76.06
2022-10-13T01:27:51.725Z,75.93
2022-10-13T01:30:21.319Z,71.87
2022-10-13T01:33:00.582Z,72.08
2022-10-13T01:35:36.208Z,71.98
2022-10-13T01:38:11.938Z,72.12
2022-10-13T01:41:03.830Z,73.06
2022-10-13T01:43:37.569Z,72.70
2022-10-13T01:46:10.296Z,72.16
2022-10-13T01:48:39.075Z,74.73
2022-10-13T01:51:10.451Z,73.36
2022-10-13T01:53:37.948Z,72.28
2022-10-13T01:56:05.704Z,71.89
2022-10-13T01:58:35.636Z,71.38
2022-10-13T02:01:15.264Z,71.97
2022-10-13T02:04:01.516Z,71.33
2022-10-13T02:06:33.267Z,70.91
2022-10-13T02:09:09.867Z,70.99
2022-10-13T02:11:39.527Z,71.47
2022-10-13T02:14:07.007Z,72.57
2022-10-13T02:16:36.875Z,71.12
2022-10-13T02:19:09.625Z,70.32
2022-10-13T02:21:37.828Z,68.21
2022-10-13T02:24:05.846Z,67.54
2022-10-13T02:26:34.440Z,67.51
2022-10-13T02:29:11.330Z,69.02
2022-10-13T02:31:39.297Z,70.29
2022-10-13T02:34:08.566Z,70.21
2022-10-13T02:36:38.026Z,69.87
2022-10-13T02:39:09.577Z,69.36
2022-10-13T02:41:37.707Z,68.78
2022-10-13T02:44:05.707Z,66.10
2022-10-13T02:46:33.837Z,64.70
2022-10-13T02:49:01.745Z,64.85
2022-10-13T02:51:29.492Z,63.38
2022-10-13T02:53:56.876Z,59.76
2022-10-13T02:56:24.569Z,59.19
2022-10-13T02:58:51.978Z,60.42
2022-10-13T03:01:19.369Z,59.65
2022-10-13T03:03:47.026Z,52.99
2022-10-13T03:06:14.398Z,53.22
2022-10-13T03:08:41.776Z,57.87
2022-10-13T03:11:09.393Z,61.85
2022-10-13T03:13:37.589Z,66.47
2022-10-13T03:16:07.505Z,68.62
2022-10-13T03:18:35.340Z,69.13
2022-10-13T03:21:05.327Z,68.96
2022-10-13T03:23:34.313Z,64.55
2022-10-13T03:26:02.136Z,64.92
2022-10-13T03:28:29.599Z,65.37
2022-10-13T03:31:06.135Z,64.61
2022-10-13T03:33:34.308Z,64.03
2022-10-13T03:36:03.697Z,69.33
2022-10-13T03:38:32.324Z,68.69
2022-10-13T03:41:13.907Z,69.13
2022-10-13T03:43:42.350Z,74.82
2022-10-13T03:46:14.995Z,75.75
2022-10-13T03:48:42.880Z,73.63
2022-10-13T03:51:15.913Z,70.68
2022-10-13T03:53:46.279Z,67.48
2022-10-13T03:56:19.849Z,62.59
2022-10-13T03:58:54.745Z,60.34
2022-10-13T04:01:24.480Z,59.55
2022-10-13T04:03:53.917Z,60.78
2022-10-13T04:06:22.123Z,60.70
2022-10-13T04:08:49.797Z,57.61
2022-10-13T04:11:19.687Z,59.89
2022-10-13T04:13:51.494Z,62.59
2022-10-13T04:16:21.765Z,63.16
2022-10-13T04:18:58.696Z,63.44
2022-10-13T04:21:27.188Z,63.49
2022-10-13T04:23:58.629Z,61.61
2022-10-13T04:26:28.759Z,60.58
2022-10-13T04:28:56.393Z,60.07
2022-10-13T04:31:24.044Z,58.90
2022-10-13T04:33:51.937Z,61.75
2022-10-13T04:36:19.765Z,63.68
2022-10-13T04:38:48.444Z,63.24
2022-10-13T04:41:17.149Z,63.09
2022-10-13T04:43:48.361Z,64.08
2022-10-13T04:46:19.393Z,64.29
2022-10-13T04:48:47.418Z,64.75
2022-10-13T04:51:17.468Z,64.21
2022-10-13T04:53:45.095Z,63.45
2022-10-13T04:56:15.904Z,64.27
2022-10-13T04:58:44.493Z,65.43
2022-10-13T05:01:21.425Z,64.91
2022-10-13T05:03:59.793Z,64.24
2022-10-13T05:06:30.511Z,63.30
2022-10-13T05:08:58.270Z,61.64
2022-10-13T05:11:29.588Z,61.71
2022-10-13T05:13:57.813Z,62.04
2022-10-13T05:16:25.524Z,61.64
2022-10-13T05:18:54.037Z,61.02
2022-10-13T05:21:24.154Z,61.22
2022-10-13T05:23:54.348Z,62.38
2022-10-13T05:26:29.158Z,62.09
2022-10-13T05:28:57.247Z,61.10
2022-10-13T05:31:30.458Z,63.11
2022-10-13T05:33:58.148Z,64.95
2022-10-13T05:36:33.780Z,61.54
2022-10-13T05:39:03.871Z,55.53
2022-10-13T05:41:32.052Z,55.86
2022-10-13T05:44:05.075Z,57.02
2022-10-13T05:46:32.694Z,57.74
2022-10-13T05:49:00.149Z,60.88
2022-10-13T05:51:32.303Z,60.35
2022-10-13T05:54:24.523Z,62.72
2022-10-13T05:56:57.751Z,65.69
2022-10-13T05:59:27.515Z,66.45
2022-10-13T06:01:55.081Z,66.74
2022-10-13T06:04:31.573Z,67.64
2022-10-13T06:06:59.182Z,69.24
2022-10-13T06:09:34.629Z,66.89
2022-10-13T06:12:02.024Z,67.78
2022-10-13T06:14:30.307Z,66.75
2022-10-13T06:16:57.824Z,67.11
2022-10-13T06:19:25.490Z,66.16
2022-10-13T06:21:53.137Z,65.39
2022-10-13T06:24:20.441Z,67.76
2022-10-13T06:26:48.150Z,66.70
2022-10-13T06:29:15.892Z,67.48
2022-10-13T06:31:43.405Z,61.96
2022-10-13T06:34:12.730Z,57.74
2022-10-13T06:36:44.144Z,57.54
2022-10-13T06:39:12.315Z,61.34
2022-10-13T06:41:40.002Z,62.08
2022-10-13T06:44:07.378Z,61.36
2022-10-13T06:46:34.722Z,61.20
2022-10-13T06:49:02.436Z,63.12
2022-10-13T06:51:29.921Z,62.61
2022-10-13T06:53:57.544Z,63.14
2022-10-13T06:56:26.767Z,62.12
2022-10-13T06:58:54.112Z,60.19
2022-10-13T07:01:21.731Z,61.53
2022-10-13T07:03:49.986Z,58.22
2022-10-13T07:06:19.357Z,56.16
2022-10-13T07:08:47.006Z,53.25
2022-10-13T07:11:16.727Z,52.62
2022-10-13T07:13:49.028Z,53.19
2022-10-13T07:16:17.882Z,55.16
2022-10-13T07:18:47.546Z,54.89
2022-10-13T07:21:14.964Z,55.15
2022-10-13T07:23:42.909Z,54.28
2022-10-13T07:26:12.186Z,53.77
2022-10-13T07:28:40.217Z,52.84
2022-10-13T07:31:16.053Z,53.28
2022-10-13T07:33:45.969Z,53.27
2022-10-13T07:36:16.012Z,51.01
2022-10-13T07:38:43.571Z,50.26
2022-10-13T07:41:12.246Z,53.75
2022-10-13T07:43:40.121Z,53.26
2022-10-13T07:46:08.380Z,53.51
2022-10-13T07:48:36.103Z,51.83
2022-10-13T07:51:06.019Z,50.83
2022-10-13T07:53:35.342Z,49.44
2022-10-13T07:56:05.032Z,48.20
2022-10-13T07:58:33.366Z,48.13
2022-10-13T08:01:01.888Z,48.62
2022-10-13T08:03:30.119Z,46.57
2022-10-13T08:06:01.808Z,46.25
2022-10-13T08:08:30.062Z,47.06
2022-10-13T08:11:16.768Z,46.35
2022-10-13T08:13:49.893Z,44.69
2022-10-13T08:16:20.965Z,45.34
2022-10-13T08:18:48.912Z,45.05
2022-10-13T08:21:56.873Z,45.61
2022-10-13T08:24:07.178Z,45.18
2022-10-13T08:26:34.813Z,46.05
2022-10-13T08:29:20.746Z,46.43
2022-10-13T08:31:50.424Z,42.60
2022-10-13T08:34:17.962Z,45.13
2022-10-13T08:36:45.460Z,42.51
2022-10-13T08:39:14.048Z,43.08
2022-10-13T08:41:46.586Z,40.63
2022-10-13T08:47:37.666Z,43.70
2022-10-13T08:50:12.690Z,40.01
2022-10-13T08:53:05.696Z,40.69
2022-10-13T08:55:45.021Z,40.79
2022-10-13T08:58:19.311Z,41.34
2022-10-13T09:00:47.113Z,41.45
2022-10-13T09:03:28.191Z,40.31
2022-10-13T09:06:15.889Z,41.66
2022-10-13T09:08:49.697Z,39.80
2022-10-13T09:11:17.550Z,38.92
2022-10-13T09:13:44.933Z,39.48
2022-10-13T09:16:12.353Z,38.62
2022-10-13T09:18:40.557Z,39.33
2022-10-13T09:21:14.611Z,38.39
2022-10-13T09:23:42.375Z,38.72
2022-10-13T09:26:17.017Z,38.93
2022-10-13T09:28:45.161Z,39.83
2022-10-13T09:31:19.452Z,39.05
2022-10-13T09:33:47.101Z,38.28
2022-10-13T09:36:15.854Z,37.46
2022-10-13T09:39:17.262Z,36.94
2022-10-13T09:41:45.465Z,38.28
2022-10-13T09:44:16.826Z,37.30
2022-10-13T09:46:53.845Z,36.53
2022-10-13T09:50:04.706Z,39.03
2022-10-13T09:52:34.931Z,36.57
2022-10-13T09:55:05.983Z,35.75
2022-10-13T09:57:43.968Z,36.25
2022-10-13T10:00:17.517Z,35.01
2022-10-13T10:03:03.308Z,36.40
2022-10-13T10:05:50.378Z,36.14
2022-10-13T10:09:04.860Z,34.55
2022-10-13T10:11:41.569Z,35.58
2022-10-13T10:14:17.267Z,33.74
2022-10-13T10:16:48.067Z,34.75
2022-10-13T10:19:24.759Z,35.54
2022-10-13T10:22:05.933Z,35.00
2022-10-13T10:24:42.671Z,35.40
2022-10-13T10:30:06.474Z,34.03
2022-10-13T10:32:52.048Z,33.67
2022-10-13T10:35:36.374Z,33.76
2022-10-13T10:38:47.569Z,33.01
2022-10-13T10:41:33.680Z,30.93
2022-10-13T10:44:03.074Z,31.19
2022-10-13T10:46:35.914Z,31.95
2022-10-13T10:49:17.201Z,30.57
2022-10-13T10:51:45.077Z,30.78
2022-10-13T10:54:46.578Z,31.93
2022-10-13T10:57:38.687Z,33.11
2022-10-13T11:00:11.545Z,32.25
2022-10-13T11:03:07.232Z,37.13
2022-10-13T11:06:00.480Z,35.62
2022-10-13T11:08:32.270Z,34.08
2022-10-13T11:11:37.425Z,32.53
2022-10-13T11:14:09.055Z,33.17
2022-10-13T11:17:03.107Z,33.10
2022-10-13T11:19:38.867Z,34.10
2022-10-13T11:22:06.079Z,32.20
2022-10-13T11:24:38.840Z,31.86
2022-10-13T11:27:16.664Z,32.74
2022-10-13T11:29:44.442Z,31.67
2022-10-13T11:32:36.332Z,31.98
2022-10-13T11:35:06.773Z,33.78
2022-10-13T11:38:05.916Z,34.60
2022-10-13T11:40:42.241Z,32.76
2022-10-13T11:43:34.310Z,32.46
2022-10-13T11:46:36.027Z,34.41
2022-10-13T11:49:20.026Z,32.88
2022-10-13T11:52:12.861Z,32.93
2022-10-13T11:55:01.985Z,33.29
2022-10-13T11:57:32.730Z,31.29
2022-10-13T12:00:00.764Z,31.88
2022-10-13T12:02:28.928Z,34.99
2022-10-13T12:05:20.043Z,34.61
2022-10-13T12:07:48.373Z,34.66
2022-10-13T12:10:31.463Z,34.91
2022-10-13T12:13:01.086Z,36.82
2022-10-13T12:15:30.595Z,35.12
2022-10-13T12:17:58.020Z,34.92
2022-10-13T12:20:31.682Z,36.33
2022-10-13T12:22:59.886Z,39.47
2022-10-13T12:25:29.933Z,39.11
2022-10-13T12:28:00.051Z,35.99
2022-10-13T12:30:30.224Z,34.78
2022-10-13T12:32:59.166Z,38.35
2022-10-13T12:35:32.464Z,33.75
2022-10-13T12:38:07.142Z,33.75
2022-10-13T12:40:35.800Z,32.33
2022-10-13T12:43:04.381Z,33.31
2022-10-13T12:45:33.230Z,35.44
2022-10-13T12:48:01.522Z,38.41
2022-10-13T12:50:34.818Z,35.86
2022-10-13T12:53:13.885Z,35.50
2022-10-13T12:55:55.458Z,37.51
2022-10-13T12:58:27.024Z,38.48
2022-10-13T13:01:04.152Z,36.53
2022-10-13T13:03:31.692Z,36.11
2022-10-13T13:06:14.836Z,36.89
2022-10-13T13:08:43.298Z,38.50
2022-10-13T13:11:24.989Z,39.65
2022-10-13T13:14:31.266Z,40.70
2022-10-13T13:17:56.704Z,39.97
2022-10-13T13:20:37.917Z,41.74
2022-10-13T13:23:05.879Z,37.40
2022-10-13T13:25:33.240Z,37.12
2022-10-13T13:28:04.198Z,37.80
2022-10-13T13:30:31.931Z,37.60
2022-10-13T13:32:59.426Z,39.65
2022-10-13T13:35:26.903Z,38.47
2022-10-13T13:37:54.768Z,36.99
2022-10-13T13:40:24.942Z,35.04
2022-10-13T13:42:52.526Z,40.62
2022-10-13T13:45:22.302Z,40.82
2022-10-13T13:47:50.551Z,39.29
2022-10-13T13:50:23.971Z,37.60
2022-10-13T13:52:57.051Z,38.47
2022-10-13T13:55:24.886Z,36.83
2022-10-13T13:57:52.378Z,34.79
2022-10-13T14:00:20.389Z,34.39
2022-10-13T14:02:50.966Z,33.93
2022-10-13T14:05:18.365Z,35.70
2022-10-13T14:07:45.751Z,37.81
2022-10-13T14:10:13.392Z,38.22
2022-10-13T14:12:40.967Z,39.35
2022-10-13T14:15:08.990Z,40.51
2022-10-13T14:17:36.664Z,38.92
2022-10-13T14:20:04.865Z,39.19
2022-10-13T14:22:37.513Z,39.74
2022-10-13T14:25:06.134Z,40.15
2022-10-13T14:27:34.716Z,42.99
2022-10-13T14:30:06.581Z,38.96
2022-10-13T14:32:36.465Z,36.82
2022-10-13T14:35:04.498Z,35.64
2022-10-13T14:37:33.567Z,36.82
2022-10-13T14:40:01.807Z,35.93
2022-10-13T14:42:29.278Z,37.63
2022-10-13T14:44:56.645Z,37.64
2022-10-13T14:47:24.293Z,36.22
2022-10-13T14:49:51.668Z,36.83
2022-10-13T14:52:19.023Z,38.28
2022-10-13T14:54:46.677Z,38.86
2022-10-13T14:57:17.035Z,39.84
2022-10-13T14:59:44.530Z,41.28
2022-10-13T15:02:13.097Z,39.00
2022-10-13T15:04:45.699Z,37.61
2022-10-13T15:07:13.371Z,36.80
2022-10-13T15:09:52.670Z,36.88
2022-10-13T15:12:28.477Z,37.15
2022-10-13T15:14:55.843Z,36.49
2022-10-13T15:17:23.173Z,35.71
2022-10-13T15:19:50.788Z,36.24
2022-10-13T15:22:18.357Z,35.99
2022-10-13T15:24:46.155Z,36.14
2022-10-13T15:27:13.855Z,36.69
2022-10-13T15:29:41.294Z,36.60
2022-10-13T15:32:18.134Z,36.89
2022-10-13T15:34:49.116Z,37.22
2022-10-13T15:37:16.532Z,37.36
2022-10-13T15:39:43.908Z,37.32
2022-10-13T15:42:12.191Z,37.90
2022-10-13T15:45:04.687Z,39.37
2022-10-13T15:47:27.163Z,39.84
2022-10-13T15:49:54.798Z,41.16
2022-10-13T15:52:22.465Z,45.60
2022-10-13T15:54:51.520Z,48.71
2022-10-13T15:57:18.950Z,51.33
2022-10-13T15:59:46.307Z,52.01
2022-10-13T16:02:13.934Z,53.61
2022-10-13T16:04:41.546Z,53.98
2022-10-13T16:07:08.947Z,54.72
2022-10-13T16:09:36.299Z,54.21
2022-10-13T16:12:04.003Z,54.33
2022-10-13T16:14:31.412Z,56.17
2022-10-13T16:17:01.776Z,57.04
2022-10-13T16:19:29.507Z,57.28
2022-10-13T16:21:56.902Z,58.23
2022-10-13T16:24:24.267Z,58.29
2022-10-13T16:26:51.867Z,59.52
2022-10-13T16:29:19.228Z,60.31
2022-10-13T16:31:46.602Z,60.35
2022-10-13T16:34:14.267Z,60.09
2022-10-13T16:36:41.643Z,62.03
2022-10-13T16:39:09.051Z,62.14
2022-10-13T16:41:39.506Z,59.94
2022-10-13T16:44:07.047Z,55.08
2022-10-13T16:46:34.445Z,53.81
2022-10-13T16:49:02.287Z,53.81
2022-10-13T16:51:29.947Z,54.04
2022-10-13T16:54:03.653Z,53.73
2022-10-13T16:56:32.649Z,54.04
2022-10-13T16:59:02.210Z,53.51
2022-10-13T17:01:30.324Z,53.85
2022-10-13T17:03:58.630Z,53.27
2022-10-13T17:06:27.983Z,55.13
2022-10-13T17:08:58.098Z,55.20
2022-10-13T17:11:28.717Z,55.72
2022-10-13T17:13:57.503Z,56.26
2022-10-13T17:16:25.601Z,55.78
2022-10-13T17:18:54.235Z,56.51
2022-10-13T17:21:22.275Z,57.05
2022-10-13T17:23:50.125Z,57.70
2022-10-13T17:26:19.612Z,56.77
2022-10-13T17:28:47.604Z,59.13
2022-10-13T17:31:17.398Z,59.09
2022-10-13T17:33:45.486Z,59.00
2022-10-13T17:36:16.003Z,59.61
2022-10-13T17:38:44.544Z,58.88
2022-10-13T17:41:14.625Z,59.07
2022-10-13T17:43:44.491Z,58.58
2022-10-13T17:46:35.560Z,59.57
2022-10-13T17:49:08.114Z,63.21
2022-10-13T17:51:36.270Z,66.29
2022-10-13T17:54:04.562Z,66.90
2022-10-13T17:56:32.283Z,65.80
2022-10-13T17:59:02.146Z,66.49
2022-10-13T18:01:32.636Z,67.33
2022-10-13T18:04:09.479Z,66.20
2022-10-13T18:06:44.065Z,65.38
2022-10-13T18:09:19.887Z,66.39
2022-10-13T18:11:50.542Z,67.58
2022-10-13T18:14:20.226Z,65.95
2022-10-13T18:16:50.650Z,64.57
2022-10-13T18:19:18.293Z,63.01
2022-10-13T18:21:46.363Z,62.43
2022-10-13T18:24:14.064Z,62.16
2022-10-13T18:26:41.829Z,62.21
2022-10-13T18:29:12.056Z,62.19
2022-10-13T18:31:41.283Z,61.58
2022-10-13T18:34:13.364Z,61.83
2022-10-13T18:36:44.184Z,61.73
2022-10-13T18:39:14.382Z,61.09
2022-10-13T18:41:43.278Z,61.85
2022-10-13T18:44:11.509Z,62.32
2022-10-13T18:46:39.622Z,62.40
2022-10-13T18:49:10.766Z,62.36
2022-10-13T18:51:40.049Z,63.03
2022-10-13T18:54:08.546Z,63.70
2022-10-13T18:56:39.369Z,63.37
2022-10-13T18:59:08.198Z,63.86
2022-10-13T19:01:37.739Z,64.67
2022-10-13T19:04:05.924Z,65.25
2022-10-13T19:06:33.593Z,64.25
2022-10-13T19:09:09.291Z,64.36
2022-10-13T19:11:37.708Z,62.26
2022-10-13T19:14:07.219Z,62.90
2022-10-13T19:16:37.750Z,62.78
2022-10-13T19:19:07.166Z,62.51
2022-10-13T19:21:36.762Z,61.66
2022-10-13T19:24:07.700Z,62.69
2022-10-13T19:26:36.264Z,60.13
2022-10-13T19:29:07.499Z,60.70
2022-10-13T19:31:36.696Z,60.93
2022-10-13T19:34:09.100Z,60.62
2022-10-13T19:36:43.381Z,61.12
2022-10-13T19:39:29.657Z,61.71
2022-10-13T19:41:57.909Z,64.24
2022-10-13T19:44:25.890Z,64.20
2022-10-13T19:46:54.188Z,63.21
2022-10-13T19:49:23.219Z,62.19
2022-10-13T19:51:54.117Z,61.46
2022-10-13T19:54:23.947Z,62.84
2022-10-13T19:56:51.899Z,63.55
2022-10-13T19:59:20.512Z,62.47
2022-10-13T20:01:49.031Z,62.37
2022-10-13T20:04:20.723Z,63.52
2022-10-13T20:06:49.587Z,60.92
2022-10-13T20:09:18.290Z,62.38
2022-10-13T20:11:47.420Z,64.03
2022-10-13T20:14:15.933Z,64.02
2022-10-13T20:16:43.912Z,63.94
2022-10-13T20:19:13.224Z,63.26
2022-10-13T20:21:41.115Z,63.14
2022-10-13T20:24:13.060Z,59.79
2022-10-13T20:26:41.323Z,61.37
2022-10-13T20:29:09.161Z,61.84
2022-10-13T20:31:36.646Z,63.57
2022-10-13T20:34:04.077Z,63.50
2022-10-13T20:36:36.020Z,62.42
2022-10-13T20:39:06.150Z,62.39
2022-10-13T20:41:35.073Z,61.61
2022-10-13T20:44:02.713Z,62.41
2022-10-13T20:46:31.076Z,63.34
2022-10-13T20:49:10.572Z,62.98
2022-10-13T20:51:39.358Z,63.32
2022-10-13T20:54:07.687Z,63.58
2022-10-13T20:56:35.741Z,64.81
2022-10-13T20:59:05.805Z,66.96
2022-10-13T21:01:33.495Z,67.77
2022-10-13T21:04:00.845Z,66.29
2022-10-13T21:06:28.245Z,66.27
2022-10-13T21:08:57.050Z,65.91
2022-10-13T21:11:24.934Z,64.67
2022-10-13T21:13:52.840Z,65.31
2022-10-13T21:16:27.301Z,64.62
2022-10-13T21:18:56.269Z,66.26
2022-10-13T21:21:26.375Z,65.54
2022-10-13T21:23:55.628Z,65.60
2022-10-13T21:26:24.350Z,65.73
2022-10-13T21:28:52.507Z,66.93
2022-10-13T21:31:21.893Z,66.02
2022-10-13T21:33:49.993Z,65.54
2022-10-13T21:36:23.367Z,65.06
2022-10-13T21:38:52.759Z,65.26
2022-10-13T21:41:20.839Z,63.14
2022-10-13T21:43:49.591Z,62.79
2022-10-13T21:46:26.639Z,65.07
2022-10-13T21:48:55.766Z,65.68
2022-10-13T21:51:31.408Z,64.20
2022-10-13T21:54:01.155Z,64.94
2022-10-13T21:56:30.876Z,66.34
2022-10-13T21:59:00.259Z,65.22
2022-10-13T22:01:28.060Z,65.49
2022-10-13T22:04:00.782Z,65.73
2022-10-13T22:06:29.502Z,65.44
2022-10-13T22:08:58.506Z,65.22
2022-10-13T22:11:28.331Z,67.71
2022-10-13T22:13:57.197Z,68.09
2022-10-13T22:16:31.082Z,67.87
2022-10-13T22:18:58.833Z,68.24
2022-10-13T22:21:34.157Z,65.30
2022-10-13T22:24:04.814Z,64.12
2022-10-13T22:26:34.447Z,63.04
2022-10-13T22:29:03.682Z,63.36
2022-10-13T22:31:33.265Z,63.40
2022-10-13T22:34:04.612Z,61.93
2022-10-13T22:36:32.027Z,63.47
2022-10-13T22:39:01.965Z,63.98
2022-10-13T22:41:29.762Z,62.01
2022-10-13T22:43:57.958Z,62.29
2022-10-13T22:46:30.743Z,64.68
2022-10-13T22:48:58.361Z,62.71
2022-10-13T22:51:27.389Z,61.40
2022-10-13T22:53:55.591Z,60.49
2022-10-13T22:56:25.711Z,61.59
2022-10-13T22:58:56.828Z,60.83
2022-10-13T23:01:24.912Z,63.78
2022-10-13T23:03:54.375Z,65.19
2022-10-13T23:06:23.881Z,67.81
2022-10-13T23:08:51.821Z,69.59
2022-10-13T23:11:19.630Z,68.84
2022-10-13T23:13:47.140Z,69.77
2022-10-13T23:16:17.765Z,71.04
2022-10-13T23:18:45.200Z,68.82
2022-10-13T23:21:17.529Z,67.38
2022-10-13T23:23:45.654Z,66.11
2022-10-13T23:26:15.363Z,68.00
2022-10-13T23:28:43.665Z,64.56
2022-10-13T23:31:14.215Z,61.71
2022-10-13T23:33:42.220Z,64.51
2022-10-13T23:36:14.494Z,64.39
2022-10-13T23:38:42.338Z,63.75
2022-10-13T23:41:13.037Z,63.12
2022-10-13T23:43:40.981Z,62.31
2022-10-13T23:46:10.614Z,61.10
2022-10-13T23:48:39.559Z,62.82
2022-10-13T23:51:19.601Z,64.57
2022-10-13T23:53:47.355Z,67.39
2022-10-13T23:56:15.539Z,69.33
2022-10-13T23:58:44.326Z,66.50
